createdAt,value
2022-10-01T00:02:06.831Z,5.07
2022-10-01T00:04:37.095Z,4.87
2022-10-01T00:07:09.402Z,4.73
2022-10-01T00:09:36.486Z,4.61
2022-10-01T00:12:03.694Z,4.51
2022-10-01T00:14:30.607Z,4.84
2022-10-01T00:16:57.559Z,4.98
2022-10-01T00:19:24.533Z,4.92
2022-10-01T00:21:51.470Z,5.27
2022-10-01T00:24:18.755Z,5.22
2022-10-01T00:26:45.699Z,5.21
2022-10-01T00:29:14.715Z,5.33
2022-10-01T00:31:42.919Z,5.36
2022-10-01T00:34:13.001Z,5.22
2022-10-01T00:36:39.939Z,5.32
2022-10-01T00:39:07.041Z,5.28
2022-10-01T00:41:35.050Z,5.31
2022-10-01T00:44:33.056Z,5.74
2022-10-01T00:47:33.774Z,5.76
2022-10-01T00:50:23.014Z,5.80
2022-10-01T00:52:57.432Z,5.79
2022-10-01T00:55:31.857Z,6.00
2022-10-01T00:57:59.179Z,5.95
2022-10-01T01:00:26.719Z,6.03
2022-10-01T01:02:53.701Z,6.12
2022-10-01T01:05:21.152Z,6.15
2022-10-01T01:07:50.614Z,6.09
2022-10-01T01:10:49.400Z,5.98
2022-10-01T01:13:25.351Z,6.15
2022-10-01T01:16:20.066Z,6.10
2022-10-01T01:19:01.966Z,5.98
2022-10-01T01:21:38.657Z,5.75
2022-10-01T01:24:27.950Z,5.83
2022-10-01T01:27:32.063Z,5.68
2022-10-01T01:30:09.178Z,5.64
2022-10-01T01:32:51.070Z,5.76
2022-10-01T01:35:44.414Z,5.81
2022-10-01T01:38:20.385Z,5.67
2022-10-01T01:40:51.545Z,5.60
2022-10-01T01:43:24.406Z,5.71
2022-10-01T01:45:56.195Z,5.79
2022-10-01T01:48:24.642Z,5.46
2022-10-01T01:51:17.413Z,5.26
2022-10-01T01:53:44.458Z,5.24
2022-10-01T01:56:11.369Z,5.13
2022-10-01T01:58:39.463Z,5.07
2022-10-01T02:01:06.496Z,5.35
2022-10-01T02:03:35.294Z,5.33
2022-10-01T02:06:21.224Z,5.24
2022-10-01T02:09:11.344Z,5.28
2022-10-01T02:12:13.111Z,5.17
2022-10-01T02:15:04.648Z,5.24
2022-10-01T02:18:16.513Z,5.28
2022-10-01T02:20:54.253Z,5.30
2022-10-01T02:23:34.011Z,5.29
2022-10-01T02:26:18.069Z,5.70
2022-10-01T02:28:48.212Z,5.46
2022-10-01T02:31:18.044Z,5.71
2022-10-01T02:33:47.365Z,5.68
2022-10-01T02:36:16.857Z,5.70
2022-10-01T02:38:46.481Z,5.54
2022-10-01T02:41:27.172Z,5.54
2022-10-01T02:44:26.213Z,5.52
2022-10-01T02:47:04.453Z,5.50
2022-10-01T02:49:32.138Z,5.62
2022-10-01T02:52:20.612Z,5.57
2022-10-01T02:54:59.432Z,5.59
2022-10-01T02:57:27.548Z,5.92
2022-10-01T03:00:06.506Z,6.02
2022-10-01T03:02:33.569Z,6.12
2022-10-01T03:05:01.170Z,6.23
2022-10-01T03:07:31.153Z,6.65
2022-10-01T03:09:58.332Z,6.73
2022-10-01T03:12:25.299Z,6.76
2022-10-01T03:14:53.203Z,6.86
2022-10-01T03:17:20.293Z,6.89
2022-10-01T03:19:47.259Z,6.91
2022-10-01T03:22:18.201Z,6.96
2022-10-01T03:24:45.265Z,7.02
2022-10-01T03:27:12.189Z,7.05
2022-10-01T03:29:39.073Z,7.11
2022-10-01T03:32:05.997Z,7.49
2022-10-01T03:34:32.966Z,7.93
2022-10-01T03:37:00.344Z,7.94
2022-10-01T03:39:27.677Z,8.07
2022-10-01T03:41:55.006Z,8.01
2022-10-01T03:44:22.354Z,8.14
2022-10-01T03:46:49.660Z,8.35
2022-10-01T03:49:17.001Z,8.22
2022-10-01T03:51:45.154Z,8.21
2022-10-01T03:54:12.775Z,8.06
2022-10-01T03:56:42.591Z,8.03
2022-10-01T03:59:12.952Z,7.98
2022-10-01T04:01:40.472Z,7.96
2022-10-01T04:04:07.815Z,8.11
2022-10-01T04:06:35.140Z,8.54
2022-10-01T04:09:02.522Z,8.55
2022-10-01T04:11:30.207Z,8.55
2022-10-01T04:13:57.969Z,8.44
2022-10-01T04:16:25.592Z,8.62
2022-10-01T04:18:53.137Z,8.60
2022-10-01T04:21:20.578Z,8.62
2022-10-01T04:23:48.280Z,8.67
2022-10-01T04:26:15.605Z,8.67
2022-10-01T04:28:45.125Z,8.64
2022-10-01T04:31:24.980Z,8.60
2022-10-01T04:33:57.702Z,8.66
2022-10-01T04:36:25.711Z,8.61
2022-10-01T04:39:00.744Z,8.82
2022-10-01T04:41:30.881Z,8.94
2022-10-01T04:44:00.011Z,8.84
2022-10-01T04:46:28.952Z,8.59
2022-10-01T04:48:56.368Z,8.60
2022-10-01T04:51:23.712Z,8.59
2022-10-01T04:53:50.973Z,8.66
2022-10-01T04:56:18.304Z,8.63
2022-10-01T04:58:45.720Z,8.94
2022-10-01T05:01:13.175Z,8.78
2022-10-01T05:03:41.242Z,8.88
2022-10-01T05:06:08.575Z,9.02
2022-10-01T05:08:36.788Z,9.19
2022-10-01T05:11:04.157Z,9.34
2022-10-01T05:13:32.050Z,9.43
2022-10-01T05:16:02.285Z,9.68
2022-10-01T05:18:30.196Z,9.77
2022-10-01T05:20:57.542Z,9.69
2022-10-01T05:23:25.007Z,9.97
2022-10-01T05:25:52.302Z,9.97
2022-10-01T05:28:22.492Z,9.95
2022-10-01T05:30:51.083Z,10.19
2022-10-01T05:33:18.493Z,10.11
2022-10-01T05:35:45.921Z,10.14
2022-10-01T05:38:13.198Z,10.26
2022-10-01T05:40:40.527Z,10.26
2022-10-01T05:43:07.833Z,10.36
2022-10-01T05:45:35.769Z,10.50
2022-10-01T05:48:05.554Z,10.51
2022-10-01T05:50:36.384Z,10.63
2022-10-01T05:53:04.407Z,10.66
2022-10-01T05:55:33.212Z,10.61
2022-10-01T05:58:11.646Z,10.70
2022-10-01T06:00:40.189Z,10.66
2022-10-01T06:03:08.622Z,10.72
2022-10-01T06:05:36.852Z,10.70
2022-10-01T06:08:06.677Z,10.71
2022-10-01T06:10:35.052Z,10.62
2022-10-01T06:13:04.353Z,10.73
2022-10-01T06:15:34.830Z,10.73
2022-10-01T06:18:04.043Z,10.70
2022-10-01T06:20:31.562Z,10.67
2022-10-01T06:22:59.251Z,10.69
2022-10-01T06:25:31.051Z,10.60
2022-10-01T06:27:59.874Z,10.28
2022-10-01T06:30:29.155Z,10.03
2022-10-01T06:33:14.814Z,9.71
2022-10-01T06:35:47.526Z,9.62
2022-10-01T06:38:16.002Z,9.45
2022-10-01T06:40:43.496Z,9.36
2022-10-01T06:43:10.896Z,9.16
2022-10-01T06:45:42.895Z,9.22
2022-10-01T06:48:16.657Z,9.04
2022-10-01T06:50:45.379Z,9.08
2022-10-01T06:53:14.059Z,8.99
2022-10-01T06:55:41.843Z,8.97
2022-10-01T06:58:14.845Z,8.89
2022-10-01T07:00:42.593Z,9.05
2022-10-01T07:03:13.843Z,8.88
2022-10-01T07:05:41.251Z,8.85
2022-10-01T07:08:08.943Z,8.81
2022-10-01T07:10:37.790Z,8.76
2022-10-01T07:13:20.270Z,8.71
2022-10-01T07:15:47.689Z,8.71
2022-10-01T07:18:15.256Z,8.89
2022-10-01T07:20:42.568Z,8.90
2022-10-01T07:23:14.093Z,8.88
2022-10-01T07:25:42.335Z,9.08
2022-10-01T07:28:16.438Z,8.97
2022-10-01T07:31:11.352Z,8.95
2022-10-01T07:33:39.461Z,9.09
2022-10-01T07:36:08.547Z,8.99
2022-10-01T07:38:35.960Z,9.02
2022-10-01T07:41:03.706Z,9.11
2022-10-01T07:43:32.128Z,8.98
2022-10-01T07:46:00.290Z,8.89
2022-10-01T07:48:28.186Z,8.98
2022-10-01T07:50:56.472Z,9.08
2022-10-01T07:53:25.298Z,8.99
2022-10-01T07:55:52.692Z,8.91
2022-10-01T07:58:23.795Z,8.87
2022-10-01T08:00:55.938Z,8.77
2022-10-01T08:03:23.715Z,8.75
2022-10-01T08:05:52.955Z,8.72
2022-10-01T08:08:20.286Z,8.83
2022-10-01T08:10:48.905Z,8.76
2022-10-01T08:13:17.611Z,8.70
2022-10-01T08:15:46.904Z,8.61
2022-10-01T08:18:14.474Z,8.57
2022-10-01T08:20:41.848Z,8.54
2022-10-01T08:23:14.760Z,8.52
2022-10-01T08:25:44.091Z,8.49
2022-10-01T08:28:12.639Z,8.50
2022-10-01T08:30:41.945Z,8.51
2022-10-01T08:33:12.463Z,8.49
2022-10-01T08:35:40.499Z,8.47
2022-10-01T08:38:08.107Z,8.49
2022-10-01T08:40:38.160Z,8.51
2022-10-01T08:43:07.451Z,8.48
2022-10-01T08:45:51.474Z,8.49
2022-10-01T08:48:24.724Z,8.49
2022-10-01T08:51:06.084Z,8.52
2022-10-01T08:53:56.086Z,8.51
2022-10-01T08:56:27.993Z,8.49
2022-10-01T08:59:01.010Z,8.51
2022-10-01T09:01:29.654Z,8.45
2022-10-01T09:03:58.096Z,8.49
2022-10-01T09:06:28.908Z,8.51
2022-10-01T09:09:21.264Z,8.48
2022-10-01T09:12:16.923Z,8.52
2022-10-01T09:14:46.994Z,8.51
2022-10-01T09:17:30.293Z,8.55
2022-10-01T09:20:16.437Z,8.59
2022-10-01T09:22:55.198Z,8.59
2022-10-01T09:25:27.242Z,8.61
2022-10-01T09:28:26.345Z,8.66
2022-10-01T09:31:13.568Z,8.73
2022-10-01T09:33:43.773Z,8.75
2022-10-01T09:36:42.581Z,8.84
2022-10-01T09:39:13.606Z,8.93
2022-10-01T09:41:40.933Z,8.89
2022-10-01T09:44:18.897Z,8.99
2022-10-01T09:46:47.545Z,9.04
2022-10-01T09:49:21.610Z,9.11
2022-10-01T09:51:52.736Z,9.11
2022-10-01T09:54:35.382Z,9.13
2022-10-01T09:57:10.439Z,9.18
2022-10-01T09:59:53.220Z,9.27
2022-10-01T10:02:25.820Z,9.32
2022-10-01T10:05:06.724Z,9.46
2022-10-01T10:07:35.160Z,9.49
2022-10-01T10:10:25.943Z,9.56
2022-10-01T10:13:05.252Z,9.37
2022-10-01T10:15:33.223Z,9.27
2022-10-01T10:18:21.494Z,9.30
2022-10-01T10:20:53.924Z,9.30
2022-10-01T10:23:26.757Z,9.31
2022-10-01T10:26:02.868Z,9.36
2022-10-01T10:28:43.613Z,9.38
2022-10-01T10:31:19.564Z,9.38
2022-10-01T10:33:57.857Z,9.39
2022-10-01T10:36:29.714Z,9.45
2022-10-01T10:38:58.093Z,9.50
2022-10-01T10:41:28.646Z,9.63
2022-10-01T10:44:05.092Z,9.73
2022-10-01T10:46:35.036Z,9.78
2022-10-01T10:49:19.269Z,9.85
2022-10-01T10:51:53.716Z,9.97
2022-10-01T10:54:42.012Z,10.01
2022-10-01T10:57:21.288Z,10.02
2022-10-01T11:00:16.466Z,10.07
2022-10-01T11:02:52.430Z,10.17
2022-10-01T11:05:22.019Z,10.23
2022-10-01T11:07:55.921Z,10.31
2022-10-01T11:10:44.935Z,10.38
2022-10-01T11:13:21.189Z,10.45
2022-10-01T11:16:24.760Z,10.54
2022-10-01T11:19:21.317Z,10.60
2022-10-01T11:22:04.072Z,10.60
2022-10-01T11:25:02.110Z,10.61
2022-10-01T11:28:01.439Z,10.64
2022-10-01T11:30:47.918Z,10.67
2022-10-01T11:33:45.054Z,10.67
2022-10-01T11:36:55.357Z,10.70
2022-10-01T11:39:25.882Z,10.73
2022-10-01T11:42:06.524Z,10.75
2022-10-01T11:44:39.846Z,10.79
2022-10-01T11:47:34.176Z,10.80
2022-10-01T11:50:08.296Z,10.83
2022-10-01T11:52:42.248Z,10.79
2022-10-01T11:55:49.817Z,10.76
2022-10-01T11:58:41.265Z,10.76
2022-10-01T12:01:36.031Z,10.66
2022-10-01T12:04:26.480Z,10.64
2022-10-01T12:06:58.064Z,10.68
2022-10-01T12:09:43.043Z,10.77
2022-10-01T12:12:19.685Z,10.74
2022-10-01T12:15:00.694Z,10.76
2022-10-01T12:17:40.140Z,10.77
2022-10-01T12:20:20.763Z,10.80
2022-10-01T12:22:48.524Z,10.81
2022-10-01T12:25:16.058Z,10.82
2022-10-01T12:27:56.888Z,10.88
2022-10-01T12:30:29.151Z,10.92
2022-10-01T12:33:20.807Z,10.95
2022-10-01T12:36:15.380Z,11.04
2022-10-01T12:39:06.840Z,11.07
2022-10-01T12:42:01.546Z,11.16
2022-10-01T12:45:01.008Z,11.22
2022-10-01T12:47:54.953Z,11.38
2022-10-01T12:50:25.853Z,11.54
2022-10-01T12:53:11.077Z,11.61
2022-10-01T12:55:41.448Z,11.64
2022-10-01T12:58:15.303Z,11.69
2022-10-01T13:01:00.054Z,11.76
2022-10-01T13:04:05.121Z,11.83
2022-10-01T13:06:48.966Z,11.84
2022-10-01T13:09:31.664Z,11.82
2022-10-01T13:12:03.142Z,11.92
2022-10-01T13:14:31.149Z,12.03
2022-10-01T13:17:07.871Z,12.07
2022-10-01T13:19:54.492Z,12.12
2022-10-01T13:22:27.671Z,12.18
2022-10-01T13:25:32.333Z,12.20
2022-10-01T13:28:09.608Z,12.27
2022-10-01T13:31:00.109Z,12.30
2022-10-01T13:33:32.669Z,12.35
2022-10-01T13:36:01.914Z,12.43
2022-10-01T13:38:38.413Z,12.49
2022-10-01T13:41:16.062Z,12.64
2022-10-01T13:43:56.729Z,12.66
2022-10-01T13:46:31.127Z,12.71
2022-10-01T13:49:22.977Z,12.81
2022-10-01T13:51:51.938Z,12.92
2022-10-01T13:54:40.238Z,13.06
2022-10-01T13:57:26.716Z,13.05
2022-10-01T14:00:12.587Z,12.98
2022-10-01T14:02:43.022Z,13.07
2022-10-01T14:05:29.664Z,13.12
2022-10-01T14:08:09.580Z,13.14
2022-10-01T14:11:04.508Z,13.23
2022-10-01T14:13:50.769Z,13.23
2022-10-01T14:16:19.758Z,13.30
2022-10-01T14:18:48.701Z,13.31
2022-10-01T14:21:28.654Z,13.33
2022-10-01T14:23:55.935Z,13.35
2022-10-01T14:26:48.172Z,13.33
2022-10-01T14:29:34.752Z,13.34
2022-10-01T14:32:08.916Z,13.34
2022-10-01T14:34:42.258Z,13.34
2022-10-01T14:37:16.952Z,13.27
2022-10-01T14:39:44.820Z,13.27
2022-10-01T14:42:17.538Z,13.33
2022-10-01T14:44:46.736Z,13.34
2022-10-01T14:47:25.152Z,13.31
2022-10-01T14:49:52.630Z,13.32
2022-10-01T14:52:25.929Z,13.32
2022-10-01T14:55:01.723Z,13.33
2022-10-01T14:57:41.814Z,13.39
2022-10-01T15:00:21.861Z,13.35
2022-10-01T15:03:03.345Z,13.29
2022-10-01T15:05:32.965Z,13.20
2022-10-01T15:08:23.019Z,13.27
2022-10-01T15:10:57.661Z,13.22
2022-10-01T15:13:28.322Z,13.20
2022-10-01T15:15:56.210Z,13.07
2022-10-01T15:18:24.456Z,13.09
2022-10-01T15:21:05.519Z,13.14
2022-10-01T15:23:36.452Z,13.11
2022-10-01T15:26:07.368Z,13.17
2022-10-01T15:28:36.717Z,13.15
2022-10-01T15:31:06.178Z,13.19
2022-10-01T15:33:40.277Z,13.13
2022-10-01T15:36:12.466Z,13.18
2022-10-01T15:38:42.285Z,13.18
2022-10-01T15:41:31.045Z,13.23
2022-10-01T15:44:02.607Z,13.20
2022-10-01T15:46:33.193Z,13.13
2022-10-01T15:49:21.006Z,13.18
2022-10-01T15:52:12.936Z,13.16
2022-10-01T15:54:42.009Z,13.16
2022-10-01T15:57:15.028Z,13.15
2022-10-01T15:59:42.539Z,13.26
2022-10-01T16:02:18.860Z,13.26
2022-10-01T16:04:46.928Z,13.33
2022-10-01T16:07:20.224Z,13.26
2022-10-01T16:09:58.307Z,13.28
2022-10-01T16:12:28.219Z,13.23
2022-10-01T16:15:20.919Z,13.25
2022-10-01T16:17:55.590Z,13.29
2022-10-01T16:20:46.634Z,13.20
2022-10-01T16:23:49.570Z,13.20
2022-10-01T16:26:44.289Z,13.13
2022-10-01T16:29:22.136Z,13.05
2022-10-01T16:31:50.371Z,13.05
2022-10-01T16:34:19.406Z,13.15
2022-10-01T16:36:46.904Z,13.13
2022-10-01T16:39:15.542Z,13.10
2022-10-01T16:41:44.222Z,13.06
2022-10-01T16:44:13.655Z,13.02
2022-10-01T16:46:41.649Z,13.05
2022-10-01T16:49:14.131Z,13.11
2022-10-01T16:51:42.282Z,13.15
2022-10-01T16:54:25.232Z,13.10
2022-10-01T16:56:55.061Z,12.93
2022-10-01T16:59:24.706Z,12.91
2022-10-01T17:01:54.712Z,13.05
2022-10-01T17:04:23.452Z,13.09
2022-10-01T17:06:50.712Z,13.07
2022-10-01T17:09:18.045Z,13.04
2022-10-01T17:11:46.376Z,13.04
2022-10-01T17:14:18.745Z,13.00
2022-10-01T17:16:47.495Z,13.09
2022-10-01T17:19:14.857Z,13.05
2022-10-01T17:21:42.517Z,13.02
2022-10-01T17:24:13.167Z,13.15
2022-10-01T17:26:45.397Z,13.04
2022-10-01T17:29:12.809Z,12.95
2022-10-01T17:31:41.248Z,12.85
2022-10-01T17:34:08.697Z,12.73
2022-10-01T17:36:36.370Z,12.66
2022-10-01T17:39:04.037Z,12.65
2022-10-01T17:41:31.408Z,12.66
2022-10-01T17:43:59.004Z,12.70
2022-10-01T17:46:26.401Z,12.57
2022-10-01T17:48:53.671Z,12.46
2022-10-01T17:51:21.055Z,12.42
2022-10-01T17:53:48.595Z,12.40
2022-10-01T17:56:18.053Z,12.49
2022-10-01T17:58:46.510Z,12.52
2022-10-01T18:01:16.544Z,12.49
2022-10-01T18:03:43.988Z,12.55
2022-10-01T18:06:15.224Z,12.48
2022-10-01T18:08:56.478Z,12.57
2022-10-01T18:11:25.604Z,12.62
2022-10-01T18:13:53.244Z,12.62
2022-10-01T18:16:20.827Z,12.64
2022-10-01T18:21:36.545Z,12.58
2022-10-01T18:24:05.122Z,12.50
2022-10-01T18:26:33.339Z,12.47
2022-10-01T18:29:01.069Z,12.35
2022-10-01T18:31:37.578Z,12.36
2022-10-01T18:34:16.142Z,12.44
2022-10-01T18:36:50.144Z,12.35
2022-10-01T18:39:47.135Z,12.36
2022-10-01T18:42:14.420Z,12.28
2022-10-01T18:44:41.746Z,12.20
2022-10-01T18:47:32.856Z,12.22
2022-10-01T18:50:07.447Z,12.20
2022-10-01T18:53:33.324Z,12.12
2022-10-01T18:56:22.345Z,12.12
2022-10-01T18:59:08.602Z,12.13
2022-10-01T19:01:38.868Z,12.08
2022-10-01T19:04:44.665Z,12.07
2022-10-01T19:07:39.588Z,12.12
2022-10-01T19:10:12.706Z,12.05
2022-10-01T19:12:54.886Z,12.12
2022-10-01T19:15:45.666Z,12.13
2022-10-01T19:18:49.500Z,12.16
2022-10-01T19:21:25.272Z,12.15
2022-10-01T19:23:58.485Z,12.15
2022-10-01T19:26:46.605Z,12.15
2022-10-01T19:29:30.175Z,12.22
2022-10-01T19:32:03.479Z,12.13
2022-10-01T19:34:39.338Z,12.17
2022-10-01T19:37:13.055Z,12.14
2022-10-01T19:39:42.278Z,12.20
2022-10-01T19:42:14.544Z,12.10
2022-10-01T19:45:25.497Z,12.09
2022-10-01T19:48:06.483Z,12.07
2022-10-01T19:50:40.085Z,12.09
2022-10-01T19:53:34.436Z,12.09
2022-10-01T19:56:02.811Z,12.21
2022-10-01T19:58:30.846Z,12.18
2022-10-01T20:01:00.303Z,12.15
2022-10-01T20:03:40.955Z,12.17
2022-10-01T20:06:29.624Z,12.14
2022-10-01T20:09:00.743Z,12.14
2022-10-01T20:11:37.690Z,12.26
2022-10-01T20:14:35.908Z,12.26
2022-10-01T20:17:13.533Z,12.23
2022-10-01T20:19:55.038Z,12.20
2022-10-01T20:22:55.048Z,12.29
2022-10-01T20:25:50.407Z,12.30
2022-10-01T20:28:36.349Z,12.28
2022-10-01T20:31:17.516Z,12.20
2022-10-01T20:34:04.341Z,12.24
2022-10-01T20:36:39.276Z,12.31
2022-10-01T20:39:28.960Z,12.32
2022-10-01T20:41:56.376Z,12.30
2022-10-01T20:44:28.348Z,12.25
2022-10-01T20:47:02.688Z,12.21
2022-10-01T20:49:51.686Z,12.29
2022-10-01T20:52:30.351Z,12.32
2022-10-01T20:55:14.585Z,12.21
2022-10-01T20:57:51.036Z,12.21
2022-10-01T21:00:26.653Z,12.26
2022-10-01T21:03:12.501Z,12.23
2022-10-01T21:05:55.443Z,12.25
2022-10-01T21:08:40.970Z,12.25
2022-10-01T21:11:19.731Z,12.28
2022-10-01T21:13:56.184Z,12.29
2022-10-01T21:16:41.895Z,12.36
2022-10-01T21:19:37.413Z,12.39
2022-10-01T21:22:42.910Z,12.28
2022-10-01T21:25:32.421Z,12.31
2022-10-01T21:28:15.455Z,12.30
2022-10-01T21:31:10.593Z,12.31
2022-10-01T21:34:01.628Z,12.30
2022-10-01T21:36:38.374Z,12.32
2022-10-01T21:39:34.233Z,12.39
2022-10-01T21:42:19.445Z,12.41
2022-10-01T21:45:06.853Z,12.24
2022-10-01T21:48:11.342Z,12.19
2022-10-01T21:50:48.333Z,12.16
2022-10-01T21:53:46.758Z,12.07
2022-10-01T21:56:42.670Z,12.07
2022-10-01T21:59:41.055Z,12.01
2022-10-01T22:02:48.989Z,12.02
2022-10-01T22:05:23.774Z,12.03
2022-10-01T22:08:09.322Z,12.01
2022-10-01T22:11:03.243Z,12.03
2022-10-01T22:13:33.928Z,12.00
2022-10-01T22:16:14.221Z,11.99
2022-10-01T22:18:49.111Z,11.91
2022-10-01T22:21:44.659Z,11.96
2022-10-01T22:24:18.031Z,11.93
2022-10-01T22:26:55.040Z,11.94
2022-10-01T22:29:25.476Z,11.87
2022-10-01T22:31:57.095Z,11.88
2022-10-01T22:34:37.311Z,11.89
2022-10-01T22:37:12.677Z,11.79
2022-10-01T22:39:48.318Z,11.81
2022-10-01T22:42:37.152Z,11.84
2022-10-01T22:45:14.380Z,11.90
2022-10-01T22:48:06.673Z,11.88
2022-10-01T22:50:54.484Z,11.85
2022-10-01T22:53:58.799Z,11.89
2022-10-01T22:56:53.345Z,11.91
2022-10-01T22:59:47.198Z,11.92
2022-10-01T23:02:52.623Z,12.06
2022-10-01T23:05:42.742Z,12.05
2022-10-01T23:08:25.986Z,12.07
2022-10-01T23:10:59.492Z,12.10
2022-10-01T23:13:41.284Z,12.15
2022-10-01T23:16:14.260Z,12.16
2022-10-01T23:19:25.440Z,12.13
2022-10-01T23:22:20.241Z,12.19
2022-10-01T23:24:58.369Z,12.17
2022-10-01T23:27:57.095Z,12.13
2022-10-01T23:30:24.627Z,12.08
2022-10-01T23:33:15.259Z,12.10
2022-10-01T23:35:52.541Z,12.08
2022-10-01T23:38:32.052Z,12.08
2022-10-01T23:41:03.952Z,12.07
2022-10-01T23:43:41.406Z,12.12
2022-10-01T23:46:29.925Z,12.12
2022-10-01T23:49:00.680Z,12.09
2022-10-01T23:51:43.476Z,12.04
2022-10-01T23:54:21.282Z,12.02
2022-10-01T23:57:06.909Z,12.12
2022-10-01T23:59:40.038Z,12.22
